createdAt,value
2019-02-17T00:03:17.874Z,38.67
2019-02-17T00:07:20.866Z,31.90
2019-02-17T00:11:24.879Z,30.33
2019-02-17T00:15:27.865Z,36.70
2019-02-17T00:19:30.862Z,32.23
2019-02-17T00:23:33.871Z,36.60
2019-02-17T00:27:36.855Z,31.37
2019-02-17T00:31:39.854Z,34.03
2019-02-17T00:35:42.847Z,35.90
2019-02-17T00:39:45.841Z,31.60
2019-02-17T00:43:48.838Z,33.33
2019-02-17T00:47:51.826Z,30.70
2019-02-17T00:51:55.067Z,32.07
2019-02-17T00:55:58.062Z,28.77
2019-02-17T01:00:05.789Z,31.87
2019-02-17T01:04:15.593Z,33.77
2019-02-17T01:08:18.594Z,30.83
2019-02-17T01:12:21.586Z,29.40
2019-02-17T01:16:25.077Z,28.10
2019-02-17T01:20:28.159Z,29.57
2019-02-17T01:24:31.142Z,31.10
2019-02-17T01:28:34.141Z,33.00
2019-02-17T01:32:37.130Z,29.13
2019-02-17T01:36:40.119Z,34.00
2019-02-17T01:40:43.115Z,35.93
2019-02-17T01:44:46.116Z,31.10
2019-02-17T01:48:49.122Z,32.57
2019-02-17T01:52:52.119Z,37.90
2019-02-17T01:56:55.103Z,35.17
2019-02-17T02:00:59.028Z,37.90
2019-02-17T02:05:02.123Z,35.63
2019-02-17T02:09:07.736Z,41.57
2019-02-17T02:13:10.723Z,39.50
2019-02-17T02:17:13.731Z,37.60
2019-02-17T02:21:16.718Z,35.33
2019-02-17T02:25:19.718Z,37.43
2019-02-17T02:29:22.710Z,32.13
2019-02-17T02:33:25.926Z,36.13
2019-02-17T02:37:28.916Z,33.17
2019-02-17T02:41:34.812Z,33.77
2019-02-17T02:45:37.062Z,34.20
2019-02-17T02:49:40.577Z,33.03
2019-02-17T02:53:43.614Z,33.80
2019-02-17T02:57:46.610Z,36.87
2019-02-17T03:01:51.546Z,34.33
2019-02-17T03:05:56.441Z,30.50
2019-02-17T03:09:59.435Z,32.63
2019-02-17T03:14:02.462Z,31.97
2019-02-17T03:18:05.441Z,30.40
2019-02-17T03:22:08.436Z,36.57
2019-02-17T03:26:11.444Z,31.67
2019-02-17T03:30:14.437Z,28.27
2019-02-17T03:34:17.441Z,30.27
2019-02-17T03:38:20.441Z,32.87
2019-02-17T03:42:23.431Z,28.63
2019-02-17T03:46:26.426Z,29.97
2019-02-17T03:50:29.414Z,27.67
2019-02-17T03:54:32.406Z,33.70
2019-02-17T03:58:35.411Z,26.77
2019-02-17T04:02:39.164Z,29.83
2019-02-17T04:06:42.168Z,29.23
2019-02-17T04:10:45.173Z,31.63
2019-02-17T04:14:48.168Z,27.73
2019-02-17T04:18:51.168Z,32.03
2019-02-17T04:22:54.156Z,32.23
2019-02-17T04:26:57.188Z,27.47
2019-02-17T04:31:00.169Z,29.57
2019-02-17T04:35:03.670Z,26.03
2019-02-17T04:39:06.652Z,26.30
2019-02-17T04:43:09.644Z,28.00
2019-02-17T04:47:12.640Z,28.97
2019-02-17T04:51:15.636Z,27.40
2019-02-17T04:55:18.636Z,28.57
2019-02-17T04:59:21.624Z,27.00
2019-02-17T05:03:25.493Z,26.47
2019-02-17T05:07:28.492Z,26.27
2019-02-17T05:11:31.495Z,25.80
2019-02-17T05:15:34.602Z,26.40
2019-02-17T05:19:37.597Z,24.63
2019-02-17T05:23:40.596Z,27.40
2019-02-17T05:27:43.593Z,30.57
2019-02-17T05:31:46.615Z,26.53
2019-02-17T05:35:49.582Z,25.80
2019-02-17T05:39:52.865Z,29.93
2019-02-17T05:43:55.858Z,27.10
2019-02-17T05:51:23.601Z,26.30
2019-02-17T05:55:26.624Z,25.50
2019-02-17T05:59:29.629Z,28.83
2019-02-17T06:03:32.641Z,25.63
2019-02-17T06:07:35.644Z,27.43
2019-02-17T06:11:38.976Z,31.40
2019-02-17T06:15:41.988Z,24.97
2019-02-17T06:19:45.002Z,22.67
2019-02-17T06:23:48.025Z,24.63
2019-02-17T06:27:51.049Z,24.37
2019-02-17T06:31:54.045Z,29.77
2019-02-17T06:35:57.067Z,26.03
2019-02-17T06:40:00.365Z,23.90
2019-02-17T06:44:03.631Z,25.73
2019-02-17T06:48:06.649Z,23.40
2019-02-17T06:52:10.901Z,27.40
2019-02-17T06:56:15.807Z,30.27
2019-02-17T07:00:23.501Z,23.93
2019-02-17T07:04:39.999Z,24.70
2019-02-17T07:08:43.079Z,26.80
2019-02-17T07:12:46.089Z,23.77
2019-02-17T07:16:49.124Z,25.40
2019-02-17T07:20:52.123Z,26.63
2019-02-17T07:24:55.184Z,25.07
2019-02-17T07:28:58.208Z,32.23
2019-02-17T07:33:01.230Z,38.10
2019-02-17T07:37:05.340Z,36.83
2019-02-17T07:41:08.660Z,34.17
2019-02-17T07:45:11.679Z,32.43
2019-02-17T07:49:14.685Z,20.17
2019-02-17T07:53:17.812Z,21.73
2019-02-17T07:57:20.828Z,20.80
2019-02-17T08:01:23.861Z,23.23
2019-02-17T08:05:26.890Z,21.70
2019-02-17T08:09:29.900Z,21.67
2019-02-17T08:13:33.031Z,20.73
2019-02-17T08:17:36.048Z,20.57
2019-02-17T08:21:39.077Z,21.47
2019-02-17T08:25:42.093Z,22.27
2019-02-17T08:29:45.111Z,25.77
2019-02-17T08:33:48.181Z,26.03
2019-02-17T08:37:51.220Z,24.80
2019-02-17T08:41:54.309Z,23.60
2019-02-17T08:45:57.333Z,23.47
2019-02-17T08:50:00.388Z,24.77
2019-02-17T08:54:04.806Z,28.60
2019-02-17T08:58:07.911Z,30.37
2019-02-17T09:02:10.944Z,29.97
2019-02-17T09:06:13.958Z,30.63
2019-02-17T09:10:16.964Z,31.53
2019-02-17T09:14:19.979Z,30.33
2019-02-17T09:18:23.001Z,32.73
2019-02-17T09:22:26.046Z,35.03
2019-02-17T09:26:29.729Z,35.27
2019-02-17T09:30:33.006Z,31.90
2019-02-17T09:34:36.018Z,33.67
2019-02-17T09:38:39.041Z,32.63
2019-02-17T09:42:42.056Z,33.20
2019-02-17T09:46:45.081Z,36.50
2019-02-17T09:50:48.141Z,35.40
2019-02-17T09:54:52.044Z,31.43
2019-02-17T09:58:55.180Z,32.30
2019-02-17T10:02:58.269Z,29.03
2019-02-17T10:07:01.355Z,29.77
2019-02-17T10:11:04.479Z,31.10
2019-02-17T10:15:11.766Z,31.20
2019-02-17T10:19:14.783Z,29.97
2019-02-17T10:23:17.792Z,31.40
2019-02-17T10:27:20.868Z,30.60
2019-02-17T10:31:23.880Z,32.60
2019-02-17T10:35:26.915Z,31.80
2019-02-17T10:39:29.991Z,30.73
2019-02-17T10:43:32.985Z,29.03
2019-02-17T10:47:36.250Z,33.40
2019-02-17T10:51:39.503Z,29.00
2019-02-17T10:55:43.425Z,32.73
2019-02-17T10:59:46.426Z,30.60
2019-02-17T11:04:01.775Z,28.43
2019-02-17T11:08:04.868Z,29.47
2019-02-17T11:12:07.960Z,30.83
2019-02-17T11:16:11.068Z,31.07
2019-02-17T11:20:14.091Z,29.07
2019-02-17T11:24:17.156Z,27.10
2019-02-17T11:28:20.208Z,28.57
2019-02-17T11:32:23.239Z,29.77
2019-02-17T11:36:26.262Z,29.47
2019-02-17T11:40:29.277Z,27.23
2019-02-17T11:44:33.380Z,26.90
2019-02-17T11:48:36.395Z,25.83
2019-02-17T11:52:39.412Z,27.87
2019-02-17T11:56:42.869Z,26.90
2019-02-17T12:00:45.921Z,24.70
2019-02-17T12:04:48.984Z,26.97
2019-02-17T12:08:52.097Z,30.77
2019-02-17T12:12:55.186Z,36.47
2019-02-17T12:16:58.204Z,36.40
2019-02-17T12:21:03.217Z,35.50
2019-02-17T12:25:06.279Z,38.60
2019-02-17T12:29:11.212Z,35.50
2019-02-17T12:33:19.311Z,35.53
2019-02-17T12:37:19.409Z,36.27
2019-02-17T12:41:22.414Z,36.93
2019-02-17T12:45:25.429Z,34.13
2019-02-17T12:49:29.585Z,30.87
2019-02-17T12:53:32.615Z,38.20
2019-02-17T12:57:37.329Z,38.33
2019-02-17T13:01:40.430Z,33.80
2019-02-17T13:05:43.492Z,30.37
2019-02-17T13:09:46.542Z,24.63
2019-02-17T13:13:49.573Z,28.47
2019-02-17T13:17:53.090Z,29.77
2019-02-17T13:21:56.208Z,26.73
2019-02-17T13:25:59.220Z,27.90
2019-02-17T13:30:05.056Z,26.43
2019-02-17T13:34:08.066Z,26.23
2019-02-17T13:38:11.087Z,22.27
2019-02-17T13:42:14.100Z,19.60
2019-02-17T13:46:18.133Z,23.63
2019-02-17T13:50:21.233Z,23.27
2019-02-17T13:54:24.324Z,23.00
2019-02-17T13:58:27.766Z,24.17
2019-02-17T14:02:30.837Z,23.53
2019-02-17T14:06:33.987Z,24.47
2019-02-17T14:10:37.032Z,22.20
2019-02-17T14:14:40.130Z,22.70
2019-02-17T14:18:43.264Z,22.30
2019-02-17T14:22:46.269Z,22.77
2019-02-17T14:26:49.320Z,23.30
2019-02-17T14:30:52.329Z,21.07
2019-02-17T14:34:55.466Z,20.70
2019-02-17T14:38:58.882Z,22.47
2019-02-17T14:43:01.981Z,21.10
2019-02-17T14:47:04.984Z,20.00
2019-02-17T14:51:07.992Z,20.90
2019-02-17T14:55:11.411Z,22.40
2019-02-17T14:59:15.752Z,22.60
2019-02-17T15:03:18.757Z,24.23
2019-02-17T15:07:21.778Z,21.17
2019-02-17T15:11:24.774Z,21.60
2019-02-17T15:15:27.841Z,23.97
2019-02-17T15:19:30.844Z,22.77
2019-02-17T15:23:33.847Z,21.00
2019-02-17T15:27:37.015Z,23.20
2019-02-17T15:31:40.082Z,19.10
2019-02-17T15:35:43.162Z,18.73
2019-02-17T15:39:46.356Z,18.93
2019-02-17T15:43:49.379Z,21.20
2019-02-17T15:47:52.729Z,19.37
2019-02-17T15:51:55.742Z,18.10
2019-02-17T15:55:58.756Z,20.63
2019-02-17T16:00:07.500Z,19.77
2019-02-17T16:04:10.501Z,20.70
2019-02-17T16:08:13.589Z,21.67
2019-02-17T16:12:16.589Z,20.80
2019-02-17T16:16:19.654Z,22.07
2019-02-17T16:20:22.659Z,19.70
2019-02-17T16:24:25.754Z,36.87
2019-02-17T16:28:28.781Z,29.90
2019-02-17T16:32:31.863Z,27.70
2019-02-17T16:36:34.931Z,26.73
2019-02-17T16:40:37.961Z,34.10
2019-02-17T16:44:41.121Z,22.70
2019-02-17T16:48:44.138Z,23.87
2019-02-17T16:52:47.405Z,21.10
2019-02-17T16:56:50.397Z,20.57
2019-02-17T17:00:55.931Z,19.13
2019-02-17T17:04:58.959Z,23.50
2019-02-17T17:09:03.374Z,22.87
2019-02-17T17:13:06.380Z,21.77
2019-02-17T17:17:09.416Z,19.63
2019-02-17T17:21:12.497Z,19.70
2019-02-17T17:25:15.605Z,20.90
2019-02-17T17:29:18.623Z,32.90
2019-02-17T17:33:21.633Z,35.90
2019-02-17T17:37:24.648Z,29.77
2019-02-17T17:41:27.672Z,26.50
2019-02-17T17:45:30.692Z,26.47
2019-02-17T17:49:33.698Z,27.83
2019-02-17T17:53:37.817Z,31.90
2019-02-17T17:57:40.858Z,31.70
2019-02-17T18:01:45.306Z,37.00
2019-02-17T18:05:48.369Z,36.70
2019-02-17T18:09:51.393Z,33.07
2019-02-17T18:13:54.434Z,32.33
2019-02-17T18:17:57.544Z,36.23
2019-02-17T18:22:00.553Z,35.37
2019-02-17T18:26:03.739Z,31.33
2019-02-17T18:30:13.004Z,31.47
2019-02-17T18:34:16.092Z,31.43
2019-02-17T18:38:19.127Z,33.13
2019-02-17T18:42:23.290Z,33.27
2019-02-17T18:46:27.356Z,33.13
2019-02-17T18:50:30.405Z,40.53
2019-02-17T18:54:34.810Z,31.73
2019-02-17T18:58:38.016Z,36.67
2019-02-17T19:02:43.512Z,32.80
2019-02-17T19:06:46.623Z,33.97
2019-02-17T19:10:53.574Z,43.20
2019-02-17T19:14:56.866Z,39.07
2019-02-17T19:19:00.029Z,36.23
2019-02-17T19:23:03.292Z,51.30
2019-02-17T19:27:06.302Z,58.50
2019-02-17T19:31:09.471Z,64.83
2019-02-17T19:35:13.773Z,59.73
2019-02-17T19:39:16.780Z,64.57
2019-02-17T19:43:19.795Z,61.63
2019-02-17T19:47:22.819Z,58.37
2019-02-17T19:51:25.840Z,45.33
2019-02-17T19:55:29.290Z,51.63
2019-02-17T19:59:32.410Z,47.97
2019-02-17T20:03:41.033Z,40.30
2019-02-17T20:07:44.082Z,45.60
2019-02-17T20:11:47.088Z,36.47
2019-02-17T20:15:50.223Z,36.13
2019-02-17T20:19:53.404Z,37.23
2019-02-17T20:23:56.436Z,35.50
2019-02-17T20:27:59.479Z,37.07
2019-02-17T20:32:02.468Z,42.63
2019-02-17T20:36:05.538Z,38.63
2019-02-17T20:40:10.531Z,39.40
2019-02-17T20:44:13.547Z,39.27
2019-02-17T20:48:16.546Z,30.83
2019-02-17T20:52:19.573Z,32.07
2019-02-17T20:56:22.579Z,33.87
2019-02-17T21:00:27.487Z,37.37
2019-02-17T21:04:31.999Z,34.93
2019-02-17T21:08:35.031Z,28.67
2019-02-17T21:12:39.072Z,35.53
2019-02-17T21:16:42.158Z,32.27
2019-02-17T21:20:47.212Z,31.37
2019-02-17T21:24:50.254Z,26.57
2019-02-17T21:28:53.304Z,27.57
2019-02-17T21:32:56.580Z,32.03
2019-02-17T21:36:59.580Z,30.60
2019-02-17T21:41:09.260Z,27.37
2019-02-17T21:45:10.382Z,24.37
2019-02-17T21:49:13.428Z,28.80
2019-02-17T21:53:20.286Z,31.67
2019-02-17T21:57:21.343Z,26.93
2019-02-17T22:01:24.335Z,24.90
2019-02-17T22:05:29.025Z,27.90
2019-02-17T22:09:32.126Z,24.13
2019-02-17T22:13:35.242Z,25.50
2019-02-17T22:17:38.254Z,25.43
2019-02-17T22:21:41.287Z,24.70
2019-02-17T22:25:44.382Z,26.40
2019-02-17T22:29:48.486Z,25.43
2019-02-17T22:33:54.517Z,27.27
2019-02-17T22:37:57.543Z,24.80
2019-02-17T22:42:00.539Z,28.20
2019-02-17T22:46:03.561Z,26.70
2019-02-17T22:50:08.846Z,25.67
2019-02-17T22:54:11.848Z,24.97
2019-02-17T22:58:14.869Z,26.90
2019-02-17T23:02:17.962Z,23.63
2019-02-17T23:06:22.138Z,23.47
2019-02-17T23:10:25.182Z,22.57
2019-02-17T23:14:28.198Z,22.13
2019-02-17T23:18:31.235Z,22.10
2019-02-17T23:22:34.204Z,26.77
2019-02-17T23:26:37.211Z,25.90
2019-02-17T23:30:40.204Z,27.20
2019-02-17T23:34:44.195Z,23.13
2019-02-17T23:38:47.182Z,23.13
2019-02-17T23:42:50.179Z,20.80
2019-02-17T23:46:53.169Z,17.17
2019-02-17T23:50:56.181Z,18.07
2019-02-17T23:54:59.171Z,16.70
2019-02-17T23:59:02.193Z,17.53
